Time;durP1;ratioP1;P1;durP2;ratioP2;P2;SDS_P1;SDS_P2;PMS_P1;PMS_P2;Temp;Humidity;BMP_temperature;BMP_pressure;BME280_temperature;BME280_humidity;BME280_pressure;Samples;Min_cycle;Max_cycle;Signal;HPM_P1;HPM_P2
2022/05/22 00:01:41;;;;;;;6.40;3.50;;;;;;;10.57;100.00;98973.75;4951088;28;20489;-66
2022/05/22 00:04:08;;;;;;;6.15;3.72;;;;;;;10.52;100.00;98977.03;4947284;29;20066;-65
2022/05/22 00:06:34;;;;;;;4.38;3.03;;;;;;;10.48;100.00;98975.78;4953315;29;20193;-68
2022/05/22 00:08:59;;;;;;;4.88;3.10;;;;;;;10.30;100.00;98969.00;4951882;28;20106;-66
2022/05/22 00:11:25;;;;;;;3.85;2.78;;;;;;;10.26;100.00;98972.25;4951196;28;20027;-66
2022/05/22 00:13:50;;;;;;;4.35;2.50;;;;;;;10.27;100.00;98969.41;4947006;28;20050;-70
2022/05/22 00:19:00;;;;;;;8.48;2.65;;;;;;;10.27;100.00;98961.28;4949893;28;20466;-66
2022/05/22 00:21:25;;;;;;;6.15;2.80;;;;;;;10.30;100.00;98968.16;4966511;28;20118;-65
2022/05/22 00:23:51;;;;;;;5.88;2.60;;;;;;;10.31;100.00;98943.59;4952757;28;20027;-66
2022/05/22 00:26:16;;;;;;;5.32;2.80;;;;;;;10.24;100.00;98940.03;4952731;28;20027;-68
2022/05/22 00:28:41;;;;;;;8.70;3.38;;;;;;;10.49;100.00;98942.28;4950570;28;20039;-65
2022/05/22 00:31:07;;;;;;;8.90;2.85;;;;;;;10.45;100.00;98938.28;4952666;28;20137;-66
2022/05/22 00:33:32;;;;;;;4.13;2.50;;;;;;;10.44;100.00;98939.31;4953476;29;20031;-66
2022/05/22 00:35:57;;;;;;;7.65;2.63;;;;;;;10.36;100.00;98934.09;4953386;28;20405;-66
2022/05/22 00:38:23;;;;;;;5.63;2.65;;;;;;;10.25;100.00;98947.09;4950929;28;20035;-66
2022/05/22 00:40:48;;;;;;;3.58;2.67;;;;;;;10.06;100.00;98945.91;4946909;28;20393;-65
2022/05/22 00:43:34;;;;;;;5.82;2.97;;;;;;;10.02;100.00;98943.78;4944316;28;20352;-66
2022/05/22 00:46:00;;;;;;;5.88;2.60;;;;;;;10.09;100.00;98945.53;4947123;28;20035;-66
2022/05/22 00:48:27;;;;;;;5.03;2.55;;;;;;;10.08;100.00;98943.81;4950409;28;20031;-67
2022/05/22 00:50:57;;;;;;;3.58;2.80;;;;;;;10.08;100.00;98945.69;4949390;28;20508;-65
2022/05/22 00:53:23;;;;;;;6.07;2.95;;;;;;;10.03;100.00;98940.03;4952865;28;20046;-65
2022/05/22 00:55:48;;;;;;;7.15;3.03;;;;;;;10.04;100.00;98937.16;4951620;28;20023;-66
2022/05/22 00:58:19;;;;;;;4.43;3.00;;;;;;;9.86;100.00;98921.44;4949832;28;20499;-66
2022/05/22 01:00:45;;;;;;;4.70;2.83;;;;;;;10.02;100.00;98927.56;4944024;28;20023;-66
2022/05/22 01:03:29;;;;;;;7.05;3.30;;;;;;;9.97;100.00;98921.94;4952906;28;20045;-66
2022/05/22 01:06:16;;;;;;;7.35;3.20;;;;;;;9.92;100.00;98919.81;4948121;28;20110;-66
2022/05/22 01:08:42;;;;;;;5.85;3.20;;;;;;;9.84;100.00;98931.59;4950897;28;20030;-67
2022/05/22 01:11:11;;;;;;;7.38;3.45;;;;;;;9.74;100.00;98930.25;4949711;28;20039;-67
2022/05/22 01:13:42;;;;;;;6.97;4.95;;;;;;;9.66;100.00;98918.56;4948187;28;20116;-65
2022/05/22 01:16:08;;;;;;;7.30;5.15;;;;;;;9.58;100.00;98912.47;4950938;28;20039;-68
2022/05/22 01:18:48;;;;;;;9.23;5.32;;;;;;;9.56;100.00;98907.25;4945728;28;20045;-68
2022/05/22 01:21:19;;;;;;;6.50;5.22;;;;;;;9.55;100.00;98910.97;4952072;28;20085;-65
2022/05/22 01:23:45;;;;;;;9.23;5.45;;;;;;;9.43;100.00;98896.31;4944174;28;20160;-66
2022/05/22 01:26:10;;;;;;;5.80;4.38;;;;;;;9.49;100.00;98916.34;4950638;28;20106;-68
2022/05/22 01:28:35;;;;;;;6.45;4.50;;;;;;;9.44;100.00;98917.75;4951840;28;20050;-68
2022/05/22 01:31:01;;;;;;;6.75;3.55;;;;;;;9.35;100.00;98908.13;4947558;28;20101;-68
2022/05/22 01:33:27;;;;;;;6.18;3.80;;;;;;;9.28;100.00;98915.31;4950994;28;20031;-68
2022/05/22 01:35:52;;;;;;;6.43;3.88;;;;;;;9.30;100.00;98917.78;4952397;28;20027;-66
2022/05/22 01:38:17;;;;;;;8.65;4.88;;;;;;;9.43;100.00;98920.63;4950836;28;20041;-67
2022/05/22 01:40:43;;;;;;;11.20;4.32;;;;;;;9.42;100.00;98933.28;4947172;28;20050;-67
2022/05/22 01:43:09;;;;;;;9.80;4.60;;;;;;;9.40;100.00;98923.72;4952091;28;20027;-66
2022/05/22 01:45:34;;;;;;;9.90;4.10;;;;;;;9.40;100.00;98919.13;4943705;28;20034;-67
2022/05/22 01:47:59;;;;;;;7.28;4.43;;;;;;;9.38;100.00;98905.03;4950259;28;20027;-67
2022/05/22 01:50:25;;;;;;;8.98;4.47;;;;;;;9.45;100.00;98926.66;4950959;28;20396;-67
2022/05/22 01:52:50;;;;;;;14.13;4.90;;;;;;;9.40;100.00;98919.13;4951868;28;20031;-66
2022/05/22 01:55:16;;;;;;;10.25;4.85;;;;;;;9.28;100.00;98918.00;4951105;28;20019;-66
2022/05/22 01:57:41;;;;;;;7.45;4.10;;;;;;;9.20;100.00;98923.53;4960163;28;20553;-67
2022/05/22 02:00:10;;;;;;;7.97;4.28;;;;;;;9.19;100.00;98927.22;4951205;28;20481;-67
2022/05/22 02:02:36;;;;;;;6.90;4.13;;;;;;;9.08;100.00;98922.34;4978168;23;20116;-64
2022/05/22 02:05:02;;;;;;;6.18;3.92;;;;;;;9.32;100.00;98919.28;4957250;28;20037;-64
2022/05/22 02:10:12;;;;;;;4.63;3.20;;;;;;;9.36;100.00;98911.63;4957325;28;20569;-64
2022/05/22 02:12:37;;;;;;;9.40;2.65;;;;;;;9.24;100.00;98899.69;4972608;28;20029;-64
2022/05/22 02:15:03;;;;;;;5.88;2.40;;;;;;;9.08;100.00;98904.28;5004962;28;20394;-64
2022/05/22 02:17:29;;;;;;;6.22;2.50;;;;;;;8.95;100.00;98915.75;4940463;28;20114;-65
2022/05/22 02:19:54;;;;;;;5.60;2.95;;;;;;;8.90;100.00;98893.09;4965830;28;20701;-64
2022/05/22 02:22:19;;;;;;;5.10;2.92;;;;;;;8.97;100.00;98877.81;4961032;28;20023;-64
2022/05/22 02:24:54;;;;;;;7.28;3.15;;;;;;;9.18;100.00;98899.41;4952166;28;20540;-64
2022/05/22 02:27:20;;;;;;;5.53;3.45;;;;;;;9.32;100.00;98881.47;4938660;28;20106;-64
2022/05/22 02:29:46;;;;;;;4.68;3.10;;;;;;;9.28;100.00;98904.50;4961492;28;20109;-65
2022/05/22 02:32:11;;;;;;;6.93;3.40;;;;;;;9.22;100.00;98894.44;4990143;28;20075;-65
2022/05/22 02:34:37;;;;;;;5.60;3.20;;;;;;;9.18;100.00;98894.00;4975000;28;20051;-65
2022/05/22 02:37:02;;;;;;;3.67;2.60;;;;;;;9.10;100.00;98890.63;4942758;28;20027;-65
2022/05/22 02:39:27;;;;;;;6.93;3.40;;;;;;;8.72;100.00;98837.72;5007212;28;20530;-64
2022/05/22 02:41:53;;;;;;;10.02;3.60;;;;;;;9.04;100.00;98886.81;4946449;28;20027;-65
2022/05/22 02:44:18;;;;;;;4.38;3.40;;;;;;;9.15;100.00;98882.78;4955769;28;20042;-64
2022/05/22 02:46:43;;;;;;;5.90;3.20;;;;;;;9.06;100.00;98854.22;4946594;28;20425;-65
2022/05/22 02:49:09;;;;;;;5.63;3.35;;;;;;;9.14;100.00;98890.03;4990373;28;20440;-65
2022/05/22 02:51:36;;;;;;;4.70;3.45;;;;;;;9.14;100.00;98881.09;4959568;28;20028;-64
2022/05/22 02:54:02;;;;;;;7.18;3.80;;;;;;;9.17;100.00;98873.47;4967902;28;20029;-64
2022/05/22 02:56:27;;;;;;;5.95;3.17;;;;;;;9.18;100.00;98864.31;4956453;28;20081;-65
2022/05/22 02:58:53;;;;;;;9.27;3.67;;;;;;;9.25;100.00;98872.50;4952099;28;20031;-65
2022/05/22 03:01:19;;;;;;;7.47;3.65;;;;;;;9.15;100.00;98853.91;4980349;28;20762;-65
2022/05/22 03:03:44;;;;;;;5.25;3.55;;;;;;;9.13;100.00;98863.22;4949426;28;20025;-64
2022/05/22 03:08:54;;;;;;;6.07;3.30;;;;;;;8.97;100.00;98864.31;4967545;28;20495;-64
2022/05/22 03:11:19;;;;;;;5.95;3.65;;;;;;;8.87;100.00;98853.00;4942258;28;20031;-64
2022/05/22 03:13:45;;;;;;;10.10;3.63;;;;;;;8.82;100.00;98853.56;4978906;28;20054;-63
2022/05/22 03:16:10;;;;;;;8.10;3.40;;;;;;;8.73;100.00;98846.63;4941359;28;20039;-64
2022/05/22 03:18:35;;;;;;;4.68;3.47;;;;;;;8.75;100.00;98829.22;4942498;28;20034;-64
2022/05/22 03:21:01;;;;;;;5.82;3.15;;;;;;;8.91;100.00;98836.25;4929021;28;20414;-64
2022/05/22 03:23:26;;;;;;;8.65;3.78;;;;;;;8.65;100.00;98803.59;4979579;28;20040;-64
2022/05/22 03:25:51;;;;;;;6.03;3.03;;;;;;;8.87;100.00;98831.41;4938051;28;20081;-64
2022/05/22 03:28:17;;;;;;;8.40;3.53;;;;;;;8.87;100.00;98834.94;4964282;28;20050;-64
2022/05/22 03:30:43;;;;;;;5.50;3.33;;;;;;;8.75;100.00;98841.84;4999750;28;20522;-65
2022/05/22 03:33:09;;;;;;;5.32;3.70;;;;;;;8.74;100.00;98840.19;5011263;28;20483;-65
2022/05/22 03:35:35;;;;;;;6.38;3.85;;;;;;;8.67;100.00;98831.19;4957978;28;20563;-65
2022/05/22 03:38:04;;;;;;;8.00;4.15;;;;;;;8.65;100.00;98828.69;4972443;28;20032;-65
2022/05/22 03:40:30;;;;;;;10.13;4.35;;;;;;;8.59;100.00;98812.44;4976625;28;20032;-64
2022/05/22 03:42:55;;;;;;;7.40;3.58;;;;;;;8.66;100.00;98829.53;5024720;28;20065;-64
2022/05/22 03:45:20;;;;;;;5.72;3.42;;;;;;;8.70;100.00;98826.28;4931919;28;20032;-64
2022/05/22 03:47:46;;;;;;;5.07;3.50;;;;;;;8.73;100.00;98822.34;4958881;28;20056;-65
2022/05/22 03:50:12;;;;;;;6.75;3.28;;;;;;;8.84;100.00;98834.50;5034725;28;20017;-65
2022/05/22 03:52:42;;;;;;;9.15;4.00;;;;;;;8.94;100.00;98832.31;4960279;28;20356;-64
2022/05/22 03:55:11;;;;;;;6.53;3.63;;;;;;;8.95;100.00;98834.81;4933484;28;20515;-64
2022/05/22 03:57:37;;;;;;;6.30;3.53;;;;;;;9.08;100.00;98836.81;4988587;28;20050;-65
2022/05/22 04:00:09;;;;;;;5.28;3.80;;;;;;;9.14;100.00;98822.56;4933467;28;20043;-65
2022/05/22 04:02:35;;;;;;;5.05;3.75;;;;;;;9.21;100.00;98825.31;4939333;28;20121;-65
2022/05/22 04:05:02;;;;;;;7.82;3.75;;;;;;;9.21;100.00;98801.84;4955060;28;20039;-64
2022/05/22 04:07:27;;;;;;;4.78;3.30;;;;;;;9.38;100.00;98824.00;4979645;28;20029;-65
2022/05/22 04:09:53;;;;;;;5.22;3.40;;;;;;;9.48;100.00;98829.06;4959881;28;20404;-65
2022/05/22 04:12:18;;;;;;;5.50;2.90;;;;;;;9.59;100.00;98825.00;4930640;28;20111;-65
2022/05/22 04:14:44;;;;;;;5.22;3.15;;;;;;;9.74;100.00;98830.28;5018312;28;20031;-65
2022/05/22 04:17:09;;;;;;;6.35;2.95;;;;;;;9.66;100.00;98810.50;4975970;28;20023;-65
2022/05/22 04:19:36;;;;;;;4.78;2.60;;;;;;;10.02;100.00;98833.81;4932325;28;20550;-64
2022/05/22 04:22:02;;;;;;;4.50;3.00;;;;;;;10.14;100.00;98834.09;4938009;28;20028;-65
2022/05/22 04:27:11;;;;;;;4.32;2.97;;;;;;;10.46;100.00;98821.78;4982014;28;20447;-65
2022/05/22 04:29:37;;;;;;;5.63;2.78;;;;;;;10.62;100.00;98808.94;4952820;28;20029;-65
2022/05/22 04:32:03;;;;;;;3.78;2.60;;;;;;;10.69;100.00;98817.91;4961882;28;20034;-64
2022/05/22 04:34:28;;;;;;;4.57;3.00;;;;;;;10.63;100.00;98819.53;4959453;28;20031;-65
2022/05/22 04:36:54;;;;;;;6.55;3.25;;;;;;;10.66;100.00;98821.88;4942831;28;20153;-65
2022/05/22 04:39:19;;;;;;;3.72;2.78;;;;;;;10.57;100.00;98797.91;4962670;28;20393;-65
2022/05/22 04:41:44;;;;;;;6.10;3.03;;;;;;;10.95;100.00;98817.97;5009495;28;20370;-65
2022/05/22 04:44:10;;;;;;;4.53;2.80;;;;;;;11.22;100.00;98814.47;4941882;28;20035;-65
2022/05/22 04:46:35;;;;;;;4.88;2.72;;;;;;;11.41;100.00;98816.34;4949182;28;20020;-64
2022/05/22 04:49:01;;;;;;;6.60;3.15;;;;;;;11.52;100.00;98813.00;4977015;28;20485;-65
2022/05/22 04:51:26;;;;;;;7.28;3.25;;;;;;;11.57;100.00;98815.91;5012480;28;20029;-64
2022/05/22 04:53:52;;;;;;;3.55;2.75;;;;;;;11.71;100.00;98811.34;4997501;28;20120;-67
2022/05/22 04:56:17;;;;;;;5.00;2.72;;;;;;;11.91;100.00;98811.31;4981926;28;20196;-64
2022/05/22 04:58:43;;;;;;;4.55;3.10;;;;;;;11.88;100.00;98803.59;4990675;28;20034;-65
2022/05/22 05:01:10;;;;;;;3.30;2.67;;;;;;;11.98;100.00;98808.59;4941918;28;20059;-65
2022/05/22 05:03:36;;;;;;;6.47;2.90;;;;;;;11.97;100.00;98796.94;4949435;28;20036;-64
2022/05/22 05:06:02;;;;;;;5.13;2.95;;;;;;;12.01;100.00;98808.19;4980246;28;20032;-65
2022/05/22 05:08:29;;;;;;;4.38;3.08;;;;;;;11.99;100.00;98804.84;5008214;28;20025;-65
2022/05/22 05:10:55;;;;;;;8.38;3.20;;;;;;;12.04;100.00;98808.56;4974157;28;20027;-65
2022/05/22 05:13:20;;;;;;;4.28;2.80;;;;;;;11.88;100.00;98778.38;4975512;28;20045;-65
2022/05/22 05:15:46;;;;;;;6.35;2.80;;;;;;;12.07;100.00;98788.31;4941662;28;20023;-65
2022/05/22 05:18:13;;;;;;;4.53;3.00;;;;;;;12.29;100.00;98799.75;5011849;28;20502;-65
2022/05/22 05:20:39;;;;;;;5.10;2.97;;;;;;;12.42;100.00;98788.00;4930679;28;20529;-65
2022/05/22 05:23:05;;;;;;;4.70;2.85;;;;;;;12.48;100.00;98760.81;4961138;28;20116;-65
2022/05/22 05:25:30;;;;;;;5.13;3.15;;;;;;;12.81;100.00;98781.53;4988037;28;20044;-65
2022/05/22 05:27:56;;;;;;;6.03;2.60;;;;;;;12.96;100.00;98761.38;5007475;28;20025;-65
2022/05/22 05:30:21;;;;;;;5.90;2.83;;;;;;;13.25;100.00;98797.94;5023878;28;20105;-65
2022/05/22 05:32:46;;;;;;;5.32;2.97;;;;;;;13.44;100.00;98796.13;4938787;28;20074;-65
2022/05/22 05:35:12;;;;;;;3.33;2.60;;;;;;;13.66;100.00;98802.84;4932631;28;20040;-71
2022/05/22 05:37:39;;;;;;;5.43;2.63;;;;;;;13.73;100.00;98762.84;4942761;28;20028;-69
2022/05/22 05:40:06;;;;;;;4.65;2.30;;;;;;;14.20;100.00;98790.38;4926952;28;20144;-71
2022/05/22 05:42:33;;;;;;;2.85;2.35;;;;;;;14.37;100.00;98778.84;4954457;28;20024;-69
2022/05/22 05:44:59;;;;;;;5.78;2.78;;;;;;;14.42;100.00;98777.09;4936385;28;20432;-71
2022/05/22 05:47:24;;;;;;;6.20;2.88;;;;;;;14.50;100.00;98743.28;4986962;28;20030;-72
2022/05/22 05:49:49;;;;;;;9.18;2.50;;;;;;;15.10;100.00;98756.06;4939022;28;20471;-68
2022/05/22 05:52:15;;;;;;;6.32;2.70;;;;;;;15.67;100.00;98777.38;4938678;28;20030;-70
2022/05/22 05:54:41;;;;;;;3.72;2.78;;;;;;;15.76;100.00;98760.41;4937975;28;20032;-69
2022/05/22 05:57:06;;;;;;;4.85;2.70;;;;;;;16.00;100.00;98769.41;4983219;28;20108;-70
2022/05/22 05:59:33;;;;;;;4.50;2.40;;;;;;;16.51;100.00;98760.63;4974409;28;20040;-71
2022/05/22 06:01:59;;;;;;;4.82;2.50;;;;;;;16.56;100.00;98752.53;4938274;28;20522;-67
2022/05/22 06:04:24;;;;;;;7.53;3.08;;;;;;;16.82;100.00;98757.44;5012096;28;20119;-69
2022/05/22 06:06:50;;;;;;;3.92;2.53;;;;;;;17.08;100.00;98771.53;4946882;28;20025;-71
2022/05/22 06:09:15;;;;;;;3.70;2.65;;;;;;;16.84;100.00;98755.28;4980879;28;20028;-69
2022/05/22 06:11:40;;;;;;;3.33;1.88;;;;;;;17.11;100.00;98762.88;4970609;28;20415;-71
2022/05/22 06:14:06;;;;;;;4.40;1.98;;;;;;;17.21;100.00;98743.91;4960032;28;20040;-69
2022/05/22 06:16:31;;;;;;;3.70;1.95;;;;;;;17.46;100.00;98762.63;4970016;28;20024;-70
2022/05/22 06:18:57;;;;;;;3.92;1.65;;;;;;;17.77;100.00;98767.75;4936985;28;20058;-71
2022/05/22 06:21:23;;;;;;;2.28;1.95;;;;;;;17.84;100.00;98754.72;4996748;28;20030;-70
2022/05/22 06:23:49;;;;;;;2.28;1.85;;;;;;;17.75;100.00;98759.78;4947366;28;20022;-69
2022/05/22 06:26:20;;;;;;;4.25;1.90;;;;;;;18.15;100.00;98767.75;4945766;28;20424;-70
2022/05/22 06:28:46;;;;;;;5.05;1.92;;;;;;;18.51;97.90;98762.72;4943940;28;20029;-69
2022/05/22 06:31:12;;;;;;;3.40;1.40;;;;;;;18.51;92.54;98765.47;4956040;28;20035;-69
2022/05/22 06:33:38;;;;;;;3.40;1.65;;;;;;;18.87;89.08;98762.34;4985140;28;20453;-74
2022/05/22 06:36:13;;;;;;;4.22;1.30;;;;;;;19.54;82.46;98763.75;5004533;28;20084;-68
2022/05/22 06:41:22;;;;;;;3.28;1.27;;;;;;;21.52;66.70;98748.31;4937161;28;20051;-66
2022/05/22 06:43:51;;;;;;;2.20;1.20;;;;;;;22.87;54.97;98742.91;4931819;28;21794;-65
2022/05/22 06:46:18;;;;;;;1.95;1.02;;;;;;;24.23;49.03;98747.56;4977785;28;20422;-67
2022/05/22 06:48:43;;;;;;;3.55;1.20;;;;;;;24.71;46.93;98750.31;4952452;28;20506;-65
2022/05/22 06:51:09;;;;;;;3.78;0.93;;;;;;;26.73;42.05;98764.00;4939251;29;20027;-67
2022/05/22 06:53:34;;;;;;;2.90;1.00;;;;;;;27.68;39.98;98763.19;4950306;28;20032;-66
2022/05/22 06:55:59;;;;;;;4.63;1.33;;;;;;;27.89;38.69;98757.94;4987192;28;22348;-66
2022/05/22 06:58:25;;;;;;;3.17;1.13;;;;;;;28.07;38.14;98761.63;4942515;28;20026;-67
2022/05/22 07:00:53;;;;;;;3.60;1.15;;;;;;;29.20;37.06;98756.38;4951940;28;20059;-66
2022/05/22 07:03:18;;;;;;;4.80;1.20;;;;;;;28.70;37.60;98757.63;4936314;28;20084;-66
2022/05/22 07:05:43;;;;;;;4.00;1.58;;;;;;;29.18;37.06;98756.69;5024707;28;20068;-67
2022/05/22 07:08:09;;;;;;;2.47;1.10;;;;;;;29.93;35.54;98753.69;4936428;28;20051;-68
2022/05/22 07:13:19;;;;;;;3.40;1.48;;;;;;;29.57;35.54;98756.84;4937946;28;20090;-66
2022/05/22 07:15:45;;;;;;;2.97;1.38;;;;;;;29.63;34.26;98766.66;4936204;28;20036;-66
2022/05/22 07:18:11;;;;;;;3.55;1.10;;;;;;;30.63;33.44;98753.38;4942159;28;20401;-66
2022/05/22 07:20:36;;;;;;;4.10;1.23;;;;;;;30.76;32.59;98767.13;4944411;28;20477;-66
2022/05/22 07:23:01;;;;;;;3.13;1.48;;;;;;;30.76;33.19;98755.13;4930487;28;20118;-69
2022/05/22 07:25:27;;;;;;;5.28;1.50;;;;;;;29.99;33.72;98737.59;5013132;28;20036;-69
2022/05/22 07:27:52;;;;;;;2.08;1.00;;;;;;;30.71;32.93;98744.97;4989079;28;20039;-69
2022/05/22 07:30:18;;;;;;;4.10;1.10;;;;;;;30.76;32.87;98736.41;4985496;28;20029;-66
2022/05/22 07:32:43;;;;;;;1.65;0.90;;;;;;;31.51;31.41;98732.06;5014121;28;20023;-71
2022/05/22 07:35:09;;;;;;;2.25;0.85;;;;;;;31.66;31.10;98726.63;4999864;28;20066;-70
2022/05/22 07:37:34;;;;;;;6.75;1.42;;;;;;;32.06;30.89;98723.22;4975973;28;20216;-70
2022/05/22 07:39:59;;;;;;;1.48;1.08;;;;;;;31.26;31.33;98731.09;5005834;28;20059;-70
2022/05/22 07:42:25;;;;;;;2.53;1.10;;;;;;;31.98;30.28;98735.34;4970733;28;20173;-72
2022/05/22 07:44:50;;;;;;;3.65;1.13;;;;;;;31.34;31.05;98721.84;4975773;28;20503;-71
2022/05/22 07:47:16;;;;;;;2.92;1.13;;;;;;;31.19;31.42;98721.28;5020662;28;20027;-72
2022/05/22 07:52:26;;;;;;;2.08;0.90;;;;;;;33.58;29.17;98698.69;4949569;28;20551;-69
2022/05/22 07:54:51;;;;;;;1.60;1.00;;;;;;;33.79;29.40;98709.69;4951445;28;20074;-69
2022/05/22 07:57:17;;;;;;;5.20;1.10;;;;;;;33.27;28.51;98710.63;4977104;28;20489;-72
2022/05/22 07:59:42;;;;;;;3.17;0.90;;;;;;;34.25;27.76;98671.56;5038185;28;20471;-70
2022/05/22 08:02:13;;;;;;;4.75;1.30;;;;;;;32.28;29.32;98704.34;5021700;28;20026;-71
2022/05/22 08:04:40;;;;;;;2.78;0.90;;;;;;;33.15;28.31;98697.47;4958884;28;20030;-69
2022/05/22 08:07:05;;;;;;;3.83;0.85;;;;;;;32.91;28.50;98693.56;5012682;28;20369;-69
2022/05/22 08:09:31;;;;;;;2.88;0.85;;;;;;;34.50;28.55;98699.44;4936102;28;20039;-71
2022/05/22 08:11:56;;;;;;;2.00;0.80;;;;;;;34.96;26.97;98687.66;4955525;28;20029;-70
2022/05/22 08:14:21;;;;;;;2.65;0.90;;;;;;;34.00;27.34;98675.72;4948032;28;20035;-70
2022/05/22 08:16:47;;;;;;;2.03;0.80;;;;;;;34.61;27.29;98694.09;5030892;28;20023;-69
2022/05/22 08:19:13;;;;;;;2.05;0.90;;;;;;;34.86;26.66;98669.34;4986458;28;20106;-69
2022/05/22 08:21:38;;;;;;;1.45;0.70;;;;;;;36.16;25.46;98681.97;4987365;28;20017;-71
2022/05/22 08:24:04;;;;;;;1.83;0.85;;;;;;;35.49;26.08;98666.22;4988890;28;20390;-69
2022/05/22 08:26:29;;;;;;;2.55;0.70;;;;;;;32.76;28.11;98676.66;4951557;28;20031;-71
2022/05/22 08:28:55;;;;;;;3.97;0.82;;;;;;;34.84;26.20;98680.16;5007532;28;20029;-69
2022/05/22 08:31:21;;;;;;;1.92;0.80;;;;;;;34.99;27.00;98659.59;5012294;28;20107;-70
2022/05/22 08:33:46;;;;;;;2.40;0.70;;;;;;;35.08;24.47;98665.84;4940428;28;20106;-69
2022/05/22 08:36:12;;;;;;;1.70;0.70;;;;;;;34.93;25.19;98674.34;4928363;28;20035;-69
2022/05/22 08:38:37;;;;;;;2.40;1.10;;;;;;;35.36;25.09;98667.59;4969939;28;20035;-69
2022/05/22 08:41:18;;;;;;;1.48;0.85;;;;;;;34.55;25.52;98662.63;4968655;28;20108;-69
2022/05/22 08:43:51;;;;;;;1.33;0.95;;;;;;;34.85;25.56;98631.19;4941853;28;20033;-69
2022/05/22 08:46:54;;;;;;;4.53;1.20;;;;;;;36.06;23.56;98645.94;5028407;28;20039;-69
2022/05/22 08:49:45;;;;;;;2.45;0.80;;;;;;;35.10;25.28;98640.97;4938821;28;20039;-70
2022/05/22 08:52:25;;;;;;;2.08;0.93;;;;;;;34.11;25.98;98645.94;4954116;28;20055;-69
2022/05/22 08:54:57;;;;;;;2.38;0.63;;;;;;;34.18;24.66;98648.94;4961546;28;20037;-69
2022/05/22 09:00:14;;;;;;;3.15;0.50;;;;;;;32.96;25.40;98633.63;4937588;28;20115;-69
2022/05/22 09:02:40;;;;;;;3.13;0.50;;;;;;;33.16;25.68;98632.63;4958797;28;20138;-68
2022/05/22 09:05:12;;;;;;;2.97;0.70;;;;;;;34.05;25.82;98634.16;4936215;28;20038;-69
2022/05/22 09:07:51;;;;;;;2.25;0.50;;;;;;;34.41;25.36;98629.41;4942607;28;20357;-70
2022/05/22 09:11:02;;;;;;;2.05;0.70;;;;;;;33.75;24.74;98625.41;4959690;28;20625;-68
2022/05/22 09:13:33;;;;;;;1.42;0.45;;;;;;;33.90;24.25;98615.34;4937878;28;20488;-69
2022/05/22 09:16:13;;;;;;;1.67;0.40;;;;;;;35.58;23.53;98623.00;5020830;28;20081;-70
2022/05/22 09:18:49;;;;;;;1.95;0.60;;;;;;;32.94;25.74;98614.38;4927949;28;20034;-68
2022/05/22 09:21:33;;;;;;;1.42;0.55;;;;;;;32.96;24.77;98614.81;4973551;28;20616;-69
2022/05/22 09:23:59;;;;;;;1.02;0.40;;;;;;;34.61;22.93;98616.25;4925369;28;20417;-68
2022/05/22 09:26:45;;;;;;;3.00;0.88;;;;;;;34.15;23.25;98603.94;4992880;28;20469;-68
2022/05/22 09:29:25;;;;;;;3.78;0.60;;;;;;;33.73;24.63;98616.53;5001648;28;20040;-68
2022/05/22 09:31:57;;;;;;;5.35;0.70;;;;;;;32.57;25.77;98610.03;4932837;28;20674;-68
2022/05/22 09:34:31;;;;;;;2.50;0.63;;;;;;;33.64;24.95;98617.88;4969346;28;20668;-69
2022/05/22 09:37:26;;;;;;;1.85;0.52;;;;;;;32.35;26.25;98614.97;4939029;28;20065;-69
2022/05/22 09:40:19;;;;;;;2.17;0.60;;;;;;;34.03;24.89;98618.84;4945519;28;20029;-69
2022/05/22 09:43:01;;;;;;;1.98;0.70;;;;;;;36.08;23.09;98607.81;4930699;28;20035;-68
2022/05/22 09:46:04;;;;;;;1.33;0.70;;;;;;;36.50;22.63;98612.44;4959118;28;20035;-69
2022/05/22 09:48:45;;;;;;;1.95;0.68;;;;;;;35.55;24.01;98608.47;4959397;28;20039;-69
2022/05/22 09:51:22;;;;;;;1.48;0.70;;;;;;;35.24;25.22;98608.69;4924710;28;20555;-69
2022/05/22 09:54:20;;;;;;;1.85;0.68;;;;;;;35.84;24.40;98603.34;4984242;28;20433;-70
2022/05/22 09:57:12;;;;;;;2.38;0.30;;;;;;;36.43;24.38;98601.06;5028481;28;20029;-69
2022/05/22 10:00:05;;;;;;;2.30;0.60;;;;;;;37.41;22.98;98586.94;4982591;28;20067;-69
2022/05/22 10:02:40;;;;;;;1.80;0.50;;;;;;;37.48;23.05;98581.38;4978686;28;20029;-69
2022/05/22 10:05:13;;;;;;;1.08;0.40;;;;;;;37.89;23.21;98579.34;5013757;28;20039;-68
2022/05/22 10:07:55;;;;;;;2.05;0.52;;;;;;;36.24;24.31;98573.81;4933672;28;20035;-68
2022/05/22 10:10:46;;;;;;;1.88;0.55;;;;;;;34.74;26.04;98587.97;4929400;28;20035;-69
2022/05/22 10:13:33;;;;;;;0.77;0.52;;;;;;;34.88;26.37;98586.28;4939193;28;20046;-68
2022/05/22 10:16:19;;;;;;;1.63;0.70;;;;;;;35.28;25.10;98579.44;4965179;28;20031;-69
2022/05/22 10:19:08;;;;;;;0.77;0.43;;;;;;;35.41;25.84;98580.06;4922548;28;20031;-70
2022/05/22 10:21:42;;;;;;;1.23;0.50;;;;;;;35.94;24.78;98585.00;4938729;28;20035;-69
2022/05/22 10:24:22;;;;;;;1.77;0.70;;;;;;;36.50;23.51;98575.78;5010417;28;20027;-69
2022/05/22 10:26:53;;;;;;;1.77;0.32;;;;;;;36.78;23.04;98578.16;4990725;28;20049;-69
2022/05/22 10:29:26;;;;;;;2.00;0.70;;;;;;;36.12;24.22;98576.84;5021828;28;20081;-69
2022/05/22 10:32:12;;;;;;;2.60;0.70;;;;;;;32.99;26.10;98570.41;4937885;28;20042;-70
2022/05/22 10:34:43;;;;;;;0.93;0.57;;;;;;;34.04;24.48;98572.78;4956966;28;20117;-68
2022/05/22 10:37:34;;;;;;;1.30;0.60;;;;;;;35.89;23.62;98563.59;4971230;28;20038;-69
2022/05/22 10:40:09;;;;;;;1.25;0.50;;;;;;;35.63;25.04;98567.22;4969075;28;20045;-68
2022/05/22 10:42:49;;;;;;;2.35;0.60;;;;;;;35.30;25.22;98567.81;5023288;28;20033;-68
2022/05/22 10:45:34;;;;;;;1.88;0.52;;;;;;;34.24;26.08;98552.00;4940500;28;20059;-68
2022/05/22 10:48:19;;;;;;;2.28;0.50;;;;;;;34.63;25.25;98546.41;4954492;28;20054;-68
2022/05/22 10:50:55;;;;;;;0.82;0.50;;;;;;;35.16;23.97;98547.88;4960497;28;20122;-69
2022/05/22 10:53:33;;;;;;;2.20;0.60;;;;;;;36.02;24.63;98543.69;4982563;28;20101;-68
2022/05/22 10:56:15;;;;;;;1.35;0.50;;;;;;;37.11;23.95;98531.44;4951984;29;20024;-68
2022/05/22 10:59:02;;;;;;;2.25;0.30;;;;;;;37.29;23.36;98531.63;5027910;28;20308;-67
2022/05/22 11:01:34;;;;;;;2.75;0.63;;;;;;;36.34;23.56;98530.06;4947299;28;20028;-69
2022/05/22 11:04:11;;;;;;;2.22;0.47;;;;;;;36.43;23.35;98525.78;4938262;28;20039;-69
2022/05/22 11:06:39;;;;;;;3.90;0.60;;;;;;;36.23;23.36;98521.47;4949011;28;20047;-69
2022/05/22 11:09:06;;;;;;;5.40;0.73;;;;;;;35.97;24.38;98511.88;5006467;28;20026;-68
2022/05/22 11:11:34;;;;;;;1.63;0.50;;;;;;;36.96;23.23;98512.72;4933494;28;20036;-69
2022/05/22 11:14:06;;;;;;;;;;;;;;;36.39;23.07;98505.22;5022299;28;20578;-69
2022/05/22 11:16:31;;;;;;;1.35;0.50;;;;;;;36.03;23.22;98503.91;4934256;28;19922;-68
2022/05/22 11:19:06;;;;;;;1.65;0.50;;;;;;;35.68;24.66;98493.72;4973918;28;20043;-69
2022/05/22 11:21:38;;;;;;;2.28;0.50;;;;;;;36.15;23.50;98500.84;4953570;28;20034;-69
2022/05/22 11:24:31;;;;;;;1.40;0.80;;;;;;;36.27;23.93;98487.75;4998818;28;20497;-68
2022/05/22 11:27:24;;;;;;;1.30;0.50;;;;;;;35.81;23.93;98482.25;4964050;28;20559;-68
2022/05/22 11:29:55;;;;;;;1.27;0.40;;;;;;;36.77;24.39;98491.97;5013564;28;20029;-68
2022/05/22 11:32:39;;;;;;;1.83;0.60;;;;;;;36.69;23.17;98490.28;4941115;29;20020;-69
2022/05/22 11:35:38;;;;;;;2.03;0.63;;;;;;;36.74;23.55;98481.47;4966757;28;20057;-68
2022/05/22 11:38:31;;;;;;;3.78;0.63;;;;;;;36.87;24.06;98464.31;4953688;28;20562;-68
2022/05/22 11:41:05;;;;;;;1.88;0.70;;;;;;;38.84;20.34;98474.84;4947916;28;20864;-68
2022/05/22 11:43:38;;;;;;;0.73;0.40;;;;;;;36.72;23.42;98466.97;4942205;28;20028;-68
2022/05/22 11:46:06;;;;;;;0.93;0.55;;;;;;;36.44;23.63;98473.03;4947846;28;20481;-67
2022/05/22 11:49:07;;;;;;;1.15;0.73;;;;;;;33.89;24.91;98456.53;4937725;28;20046;-67
2022/05/22 11:51:43;;;;;;;2.88;0.73;;;;;;;34.82;24.23;98469.72;4971109;28;20035;-67
2022/05/22 11:54:18;;;;;;;3.60;1.10;;;;;;;36.14;23.23;98447.75;4962969;28;20109;-67
2022/05/22 11:57:07;;;;;;;1.95;0.70;;;;;;;36.18;24.30;98460.69;4945476;28;20372;-67
2022/05/22 12:00:27;;;;;;;1.17;0.40;;;;;;;36.63;24.08;98453.19;4936936;28;20035;-67
2022/05/22 12:03:17;;;;;;;3.95;0.75;;;;;;;37.42;25.01;98450.31;4937723;28;20835;-68
2022/05/22 12:05:52;;;;;;;1.58;0.50;;;;;;;37.28;24.27;98450.97;4931173;28;20024;-68
2022/05/22 12:08:49;;;;;;;1.70;0.50;;;;;;;36.90;24.82;98447.41;4957853;28;20035;-66